createdAt,value
2019-04-25T00:02:16.347Z,34.80
2019-04-25T00:04:46.794Z,34.90
2019-04-25T00:07:16.926Z,34.80
2019-04-25T00:09:51.781Z,34.70
2019-04-25T00:12:22.325Z,34.80
2019-04-25T00:14:52.308Z,34.80
2019-04-25T00:17:23.620Z,34.80
2019-04-25T00:19:53.410Z,34.70
2019-04-25T00:22:29.230Z,34.70
2019-04-25T00:25:21.870Z,34.70
2019-04-25T00:27:51.830Z,34.70
2019-04-25T00:30:23.614Z,34.70
2019-04-25T00:32:55.058Z,34.80
2019-04-25T00:35:24.886Z,34.80
2019-04-25T00:37:54.663Z,34.80
2019-04-25T00:40:24.541Z,34.90
2019-04-25T00:42:54.394Z,34.90
2019-04-25T00:45:24.319Z,34.90
2019-04-25T00:47:55.156Z,34.90
2019-04-25T00:50:25.002Z,34.90
2019-04-25T00:52:54.776Z,34.80
2019-04-25T00:55:28.520Z,34.80
2019-04-25T00:58:04.079Z,34.90
2019-04-25T01:00:46.975Z,34.90
2019-04-25T01:03:22.191Z,34.80
2019-04-25T01:05:53.665Z,34.90
2019-04-25T01:08:26.706Z,34.80
2019-04-25T01:10:56.836Z,34.90
2019-04-25T01:13:26.609Z,34.80
2019-04-25T01:15:56.533Z,34.90
2019-04-25T01:18:27.422Z,34.90
2019-04-25T01:20:57.346Z,34.90
2019-04-25T01:23:28.157Z,35.00
2019-04-25T01:25:58.195Z,34.90
2019-04-25T01:28:28.066Z,34.90
2019-04-25T01:30:58.930Z,35.00
2019-04-25T01:33:30.066Z,35.00
2019-04-25T01:36:05.479Z,35.00
2019-04-25T01:38:47.631Z,35.00
2019-04-25T01:41:37.439Z,34.90
2019-04-25T01:44:14.251Z,34.80
2019-04-25T01:46:44.805Z,34.80
2019-04-25T01:49:15.439Z,34.90
2019-04-25T01:51:45.294Z,34.80
2019-04-25T01:54:15.082Z,34.80
2019-04-25T01:56:44.934Z,34.70
2019-04-25T01:59:15.223Z,34.70
2019-04-25T02:01:45.493Z,34.80
2019-04-25T02:04:15.536Z,34.70
2019-04-25T02:06:45.450Z,34.70
2019-04-25T02:09:15.747Z,34.70
2019-04-25T02:11:54.763Z,34.60
2019-04-25T02:14:27.482Z,34.70
2019-04-25T02:16:58.418Z,34.70
2019-04-25T02:19:28.449Z,34.80
2019-04-25T02:21:58.306Z,34.70
2019-04-25T02:24:28.091Z,34.80
2019-04-25T02:26:58.709Z,34.80
2019-04-25T02:29:28.847Z,34.80
2019-04-25T02:32:06.020Z,34.70
2019-04-25T02:34:34.583Z,34.80
2019-04-25T02:37:09.104Z,34.80
2019-04-25T02:39:37.667Z,34.90
2019-04-25T02:42:08.669Z,34.70
2019-04-25T02:44:44.486Z,34.70
2019-04-25T02:47:49.359Z,34.70
2019-04-25T02:50:30.271Z,34.70
2019-04-25T02:53:11.394Z,34.70
2019-04-25T02:55:41.386Z,34.80
2019-04-25T02:58:11.180Z,34.80
2019-04-25T03:00:54.898Z,34.80
2019-04-25T03:03:14.906Z,34.80
2019-04-25T03:05:47.622Z,35.00
2019-04-25T03:08:16.565Z,34.80
2019-04-25T03:10:46.577Z,34.80
2019-04-25T03:13:16.443Z,34.80
2019-04-25T03:15:46.391Z,35.20
2019-04-25T03:18:18.409Z,34.70
2019-04-25T03:21:09.214Z,34.60
2019-04-25T03:23:45.888Z,34.50
2019-04-25T03:26:14.210Z,34.50
2019-04-25T03:28:44.381Z,34.50
2019-04-25T03:31:21.908Z,34.40
2019-04-25T03:33:46.756Z,34.40
2019-04-25T03:36:17.181Z,34.40
2019-04-25T03:38:47.087Z,34.30
2019-04-25T03:41:16.894Z,34.30
2019-04-25T03:43:46.769Z,34.80
2019-04-25T03:46:16.632Z,34.20
2019-04-25T03:48:46.691Z,34.20
2019-04-25T03:51:16.728Z,34.20
2019-04-25T03:53:47.134Z,34.20
2019-04-25T03:56:16.926Z,34.20
2019-04-25T03:58:46.723Z,34.10
2019-04-25T04:01:16.602Z,34.10
2019-04-25T04:03:46.434Z,34.00
2019-04-25T04:06:16.250Z,34.00
2019-04-25T04:08:46.108Z,34.70
2019-04-25T04:11:15.934Z,34.00
2019-04-25T04:13:45.738Z,34.00
2019-04-25T04:16:17.765Z,34.10
2019-04-25T04:18:49.802Z,34.10
2019-04-25T04:21:44.499Z,34.10
2019-04-25T04:24:25.885Z,34.20
2019-04-25T04:27:26.949Z,34.10
2019-04-25T04:29:57.131Z,34.10
2019-04-25T04:32:28.354Z,34.10
2019-04-25T04:34:58.293Z,34.00
2019-04-25T04:37:29.007Z,34.10
2019-04-25T04:39:58.887Z,34.10
2019-04-25T04:42:28.710Z,34.00
2019-04-25T04:44:58.650Z,34.00
2019-04-25T04:47:29.787Z,33.90
2019-04-25T04:49:59.588Z,33.90
2019-04-25T04:52:29.394Z,33.90
2019-04-25T04:55:06.334Z,33.90
2019-04-25T04:57:35.557Z,33.90
2019-04-25T05:00:03.632Z,33.90
2019-04-25T05:02:49.910Z,33.90
2019-04-25T05:05:37.603Z,33.80
2019-04-25T05:08:14.978Z,34.00
2019-04-25T05:10:44.686Z,33.90
2019-04-25T05:13:15.779Z,33.80
2019-04-25T05:15:46.114Z,33.90
2019-04-25T05:18:31.580Z,33.90
2019-04-25T05:20:48.146Z,34.00
2019-04-25T05:23:18.818Z,33.90
2019-04-25T05:25:48.919Z,33.90
2019-04-25T05:28:19.383Z,33.90
2019-04-25T05:31:03.437Z,33.90
2019-04-25T05:33:35.037Z,33.90
2019-04-25T05:36:06.084Z,34.00
2019-04-25T05:38:35.971Z,34.00
2019-04-25T05:41:16.011Z,34.00
2019-04-25T05:43:46.733Z,34.00
2019-04-25T05:46:16.891Z,33.90
2019-04-25T05:48:46.730Z,34.00
2019-04-25T05:51:17.421Z,34.00
2019-04-25T05:53:47.284Z,33.80
2019-04-25T05:56:18.048Z,33.80
2019-04-25T05:58:48.390Z,33.80
2019-04-25T06:01:18.872Z,33.80
2019-04-25T06:03:49.005Z,33.80
2019-04-25T06:06:19.187Z,33.80
2019-04-25T06:08:54.882Z,33.80
2019-04-25T06:11:38.723Z,33.80
2019-04-25T06:14:10.754Z,33.80
2019-04-25T06:16:41.042Z,33.80
2019-04-25T06:19:36.284Z,33.90
2019-04-25T06:22:09.519Z,34.10
2019-04-25T06:24:54.220Z,34.20
2019-04-25T06:27:44.744Z,34.30
2019-04-25T06:30:25.911Z,34.20
2019-04-25T06:32:56.930Z,34.10
2019-04-25T06:35:27.922Z,34.00
2019-04-25T06:37:57.736Z,33.80
2019-04-25T06:40:29.767Z,33.70
2019-04-25T06:42:59.786Z,33.40
2019-04-25T06:45:58.133Z,33.30
2019-04-25T06:48:50.051Z,33.00
2019-04-25T06:51:19.937Z,32.70
2019-04-25T06:53:49.755Z,32.50
2019-04-25T06:56:20.114Z,32.40
2019-04-25T06:58:49.956Z,32.20
2019-04-25T07:01:19.959Z,32.10
2019-04-25T07:03:50.768Z,32.10
2019-04-25T07:06:21.022Z,32.00
2019-04-25T07:08:52.252Z,31.90
2019-04-25T07:11:25.774Z,31.90
2019-04-25T07:13:55.983Z,31.80
2019-04-25T07:16:26.043Z,31.70
2019-04-25T07:18:56.241Z,31.60
2019-04-25T07:21:26.483Z,31.40
2019-04-25T07:23:56.368Z,31.40
2019-04-25T07:26:39.883Z,31.20
2019-04-25T07:29:33.448Z,31.20
2019-04-25T07:32:24.231Z,30.90
2019-04-25T07:34:55.101Z,31.00
2019-04-25T07:37:26.099Z,31.10
2019-04-25T07:39:56.093Z,31.00
2019-04-25T07:42:26.121Z,31.10
2019-04-25T07:44:56.297Z,31.00
2019-04-25T07:47:26.911Z,30.90
2019-04-25T07:49:56.968Z,30.70
2019-04-25T07:52:27.112Z,30.50
2019-04-25T07:54:57.098Z,30.40
2019-04-25T07:57:27.944Z,30.20
2019-04-25T07:59:58.070Z,30.70
2019-04-25T08:02:28.140Z,30.50
2019-04-25T08:04:59.946Z,30.60
2019-04-25T08:07:29.938Z,30.60
2019-04-25T08:09:59.753Z,30.50
2019-04-25T08:12:30.497Z,30.40
2019-04-25T08:15:08.995Z,30.10
2019-04-25T08:18:00.318Z,30.10
2019-04-25T08:20:34.700Z,30.00
2019-04-25T08:23:05.387Z,30.00
2019-04-25T08:25:38.882Z,30.00
2019-04-25T08:28:06.996Z,30.10
2019-04-25T08:30:38.022Z,30.20
2019-04-25T08:33:09.430Z,30.20
2019-04-25T08:35:39.668Z,30.00
2019-04-25T08:38:10.238Z,29.90
2019-04-25T08:40:40.468Z,29.90
2019-04-25T08:43:10.422Z,29.90
2019-04-25T08:45:40.395Z,29.80
2019-04-25T08:48:10.494Z,29.70
2019-04-25T08:50:53.677Z,29.60
2019-04-25T08:53:27.167Z,29.60
2019-04-25T08:56:05.282Z,29.60
2019-04-25T08:58:44.944Z,29.60
2019-04-25T09:01:42.096Z,29.60
2019-04-25T09:04:19.761Z,29.60
2019-04-25T09:06:49.669Z,29.60
2019-04-25T09:09:20.453Z,29.40
2019-04-25T09:11:50.658Z,29.40
2019-04-25T09:14:20.536Z,29.20
2019-04-25T09:16:50.342Z,29.20
2019-04-25T09:19:20.190Z,29.10
2019-04-25T09:21:50.188Z,28.80
2019-04-25T09:24:19.982Z,28.30
2019-04-25T09:26:50.107Z,28.20
2019-04-25T09:29:21.212Z,28.10
2019-04-25T09:31:53.764Z,28.10
2019-04-25T09:34:23.855Z,28.00
2019-04-25T09:36:55.120Z,27.90
2019-04-25T09:39:53.800Z,27.80
2019-04-25T09:42:25.102Z,28.40
2019-04-25T09:45:10.070Z,28.50
2019-04-25T09:47:41.290Z,28.50
2019-04-25T09:50:17.495Z,28.20
2019-04-25T09:52:48.717Z,28.10
2019-04-25T09:55:37.500Z,27.70
2019-04-25T09:58:13.638Z,27.90
2019-04-25T10:00:48.428Z,28.00
2019-04-25T10:03:19.059Z,28.00
2019-04-25T10:05:49.451Z,28.00
2019-04-25T10:08:19.300Z,28.00
2019-04-25T10:10:49.106Z,27.90
2019-04-25T10:13:18.915Z,27.90
2019-04-25T10:16:07.228Z,27.80
2019-04-25T10:18:38.042Z,27.70
2019-04-25T10:21:14.333Z,27.70
2019-04-25T10:23:46.469Z,27.70
2019-04-25T10:26:17.706Z,27.80
2019-04-25T10:28:47.588Z,27.80
2019-04-25T10:31:17.455Z,27.80
2019-04-25T10:33:48.681Z,27.80
2019-04-25T10:36:19.553Z,27.80
2019-04-25T10:39:04.758Z,27.70
2019-04-25T10:41:24.373Z,27.80
2019-04-25T10:43:56.009Z,27.70
2019-04-25T10:46:25.847Z,27.60
2019-04-25T10:48:56.189Z,27.60
2019-04-25T10:51:27.807Z,27.60
2019-04-25T10:53:57.811Z,27.60
2019-04-25T10:56:27.895Z,27.60
2019-04-25T10:58:58.358Z,27.50
2019-04-25T11:01:29.007Z,27.50
2019-04-25T11:04:04.724Z,27.50
2019-04-25T11:06:35.950Z,27.50
2019-04-25T11:09:08.579Z,27.50
2019-04-25T11:11:38.461Z,27.50
2019-04-25T11:14:08.682Z,27.40
2019-04-25T11:16:38.619Z,27.50
2019-04-25T11:19:08.557Z,27.50
2019-04-25T11:21:38.650Z,27.50
2019-04-25T11:24:08.673Z,27.50
2019-04-25T11:26:38.898Z,27.50
2019-04-25T11:29:08.985Z,27.50
2019-04-25T11:31:47.009Z,27.40
2019-04-25T11:34:18.765Z,27.40
2019-04-25T11:36:49.573Z,27.40
2019-04-25T11:39:38.717Z,27.40
2019-04-25T11:42:30.313Z,27.30
2019-04-25T11:45:01.278Z,27.30
2019-04-25T11:47:31.183Z,27.30
2019-04-25T11:50:01.078Z,27.40
2019-04-25T11:52:30.962Z,27.40
2019-04-25T11:55:01.200Z,27.40
2019-04-25T11:57:31.512Z,27.50
2019-04-25T12:00:04.224Z,27.40
2019-04-25T12:02:34.625Z,27.30
2019-04-25T12:05:05.270Z,27.30
2019-04-25T12:07:35.145Z,27.40
2019-04-25T12:10:06.881Z,27.30
2019-04-25T12:12:37.349Z,27.30
2019-04-25T12:15:07.834Z,27.30
2019-04-25T12:17:37.982Z,27.20
2019-04-25T12:20:08.182Z,27.20
2019-04-25T12:22:38.094Z,27.30
2019-04-25T12:25:08.270Z,27.50
2019-04-25T12:27:38.067Z,27.50
2019-04-25T12:30:08.556Z,27.50
2019-04-25T12:32:38.718Z,27.40
2019-04-25T12:35:09.414Z,27.30
2019-04-25T12:37:39.243Z,27.40
2019-04-25T12:40:10.975Z,27.30
2019-04-25T12:42:42.079Z,27.40
2019-04-25T12:45:39.995Z,27.60
2019-04-25T12:48:10.501Z,27.50
2019-04-25T12:50:40.606Z,27.60
2019-04-25T12:53:11.830Z,27.70
2019-04-25T12:55:41.831Z,27.80
2019-04-25T12:58:13.212Z,27.80
2019-04-25T13:00:49.484Z,27.70
2019-04-25T13:03:16.344Z,27.80
2019-04-25T13:05:47.310Z,27.70
2019-04-25T13:08:17.394Z,27.80
2019-04-25T13:10:47.520Z,27.80
2019-04-25T13:13:17.645Z,27.90
2019-04-25T13:15:48.240Z,28.00
2019-04-25T13:18:18.227Z,27.90
2019-04-25T13:20:48.125Z,27.70
2019-04-25T13:23:18.219Z,27.60
2019-04-25T13:25:48.354Z,27.70
2019-04-25T13:28:25.658Z,27.70
2019-04-25T13:31:12.157Z,27.80
2019-04-25T13:33:57.582Z,27.60
2019-04-25T13:36:29.139Z,26.90
2019-04-25T13:39:00.218Z,26.40
2019-04-25T13:41:31.010Z,26.30
2019-04-25T13:44:01.743Z,26.30
2019-04-25T13:46:32.647Z,26.20
2019-04-25T13:49:04.332Z,26.20
2019-04-25T13:51:34.272Z,26.00
2019-04-25T13:54:05.008Z,26.00
2019-04-25T13:56:39.099Z,25.80
2019-04-25T13:59:09.222Z,25.80
2019-04-25T14:01:39.855Z,25.60
2019-04-25T14:04:10.015Z,25.30
2019-04-25T14:06:39.806Z,25.20
2019-04-25T14:09:13.741Z,25.20
2019-04-25T14:11:44.232Z,25.20
2019-04-25T14:14:14.384Z,25.10
2019-04-25T14:16:54.535Z,25.00
2019-04-25T14:19:48.098Z,25.00
2019-04-25T14:22:17.946Z,25.10
2019-04-25T14:24:47.842Z,25.10
2019-04-25T14:27:18.274Z,25.00
2019-04-25T14:29:48.102Z,24.90
2019-04-25T14:32:19.553Z,24.70
2019-04-25T14:34:50.410Z,24.70
2019-04-25T14:37:21.022Z,24.90
2019-04-25T14:39:53.685Z,24.90
2019-04-25T14:42:24.588Z,25.00
2019-04-25T14:44:54.918Z,24.90
2019-04-25T14:47:24.793Z,24.80
2019-04-25T14:49:54.634Z,24.80
2019-04-25T14:52:24.560Z,24.90
2019-04-25T14:55:01.763Z,25.00
2019-04-25T14:57:32.118Z,24.90
2019-04-25T15:00:04.771Z,24.90
2019-04-25T15:02:36.446Z,24.80
2019-04-25T15:05:06.594Z,24.70
2019-04-25T15:07:36.494Z,24.70
2019-04-25T15:10:06.919Z,24.80
2019-04-25T15:12:36.787Z,24.80
2019-04-25T15:15:06.946Z,24.90
2019-04-25T15:17:46.211Z,24.90
2019-04-25T15:20:09.526Z,24.80
2019-04-25T15:22:39.413Z,24.70
2019-04-25T15:25:09.304Z,24.50
2019-04-25T15:27:39.115Z,24.50
2019-04-25T15:30:12.708Z,24.60
2019-04-25T15:32:43.048Z,24.60
2019-04-25T15:35:15.818Z,24.60
2019-04-25T15:37:52.782Z,24.60
2019-04-25T15:40:29.262Z,24.60
2019-04-25T15:43:13.286Z,24.60
2019-04-25T15:46:03.971Z,24.60
2019-04-25T15:48:34.223Z,24.40
2019-04-25T15:51:04.465Z,24.40
2019-04-25T15:53:35.022Z,24.30
2019-04-25T15:56:44.175Z,24.20
2019-04-25T15:59:13.972Z,24.20
2019-04-25T16:01:43.855Z,24.20
2019-04-25T16:04:13.690Z,24.20
2019-04-25T16:06:43.582Z,24.10
2019-04-25T16:09:13.559Z,24.10
2019-04-25T16:11:43.400Z,24.20
2019-04-25T16:14:13.346Z,24.20
2019-04-25T16:16:43.174Z,24.10
2019-04-25T16:19:13.026Z,24.00
2019-04-25T16:21:42.823Z,26.10
2019-04-25T16:24:12.654Z,25.70
2019-04-25T16:26:43.119Z,25.70
2019-04-25T16:29:14.548Z,25.70
2019-04-25T16:31:44.864Z,25.70
2019-04-25T16:34:16.226Z,25.70
2019-04-25T16:36:46.002Z,25.70
2019-04-25T16:39:18.795Z,25.70
2019-04-25T16:41:48.731Z,25.70
2019-04-25T16:44:21.432Z,25.80
2019-04-25T16:46:51.288Z,25.80
2019-04-25T16:49:21.171Z,25.80
2019-04-25T16:51:50.981Z,25.80
2019-04-25T16:54:20.966Z,25.80
2019-04-25T16:56:50.836Z,25.90
2019-04-25T16:59:23.351Z,25.80
2019-04-25T17:01:53.775Z,25.80
2019-04-25T17:04:23.570Z,25.80
2019-04-25T17:06:53.498Z,25.80
2019-04-25T17:09:23.302Z,25.80
2019-04-25T17:11:53.122Z,25.80
2019-04-25T17:14:37.590Z,25.90
2019-04-25T17:17:25.227Z,25.80
2019-04-25T17:20:07.958Z,25.80
2019-04-25T17:22:39.432Z,25.80
2019-04-25T17:25:10.602Z,25.90
2019-04-25T17:27:41.238Z,25.90
2019-04-25T17:30:12.635Z,25.90
2019-04-25T17:32:57.835Z,25.80
2019-04-25T17:35:43.533Z,25.80
2019-04-25T17:38:23.119Z,25.90
2019-04-25T17:40:52.927Z,25.80
2019-04-25T17:43:23.786Z,25.80
2019-04-25T17:45:53.594Z,25.80
2019-04-25T17:48:23.389Z,25.80
2019-04-25T17:50:53.281Z,25.80
2019-04-25T17:53:23.160Z,25.80
2019-04-25T17:55:52.956Z,25.90
2019-04-25T17:58:22.826Z,25.90
2019-04-25T18:00:52.710Z,26.10
2019-04-25T18:03:22.570Z,26.10
2019-04-25T18:05:52.531Z,26.40
2019-04-25T18:08:23.768Z,26.40
2019-04-25T18:10:54.117Z,26.60
2019-04-25T18:13:24.078Z,26.70
2019-04-25T18:16:13.438Z,26.80
2019-04-25T18:18:49.541Z,26.90
2019-04-25T18:21:19.352Z,27.10
2019-04-25T18:24:04.325Z,27.20
2019-04-25T18:26:43.468Z,27.30
2019-04-25T18:29:14.079Z,27.20
2019-04-25T18:31:46.349Z,27.60
2019-04-25T18:34:24.469Z,27.80
2019-04-25T18:37:18.043Z,27.80
2019-04-25T18:39:55.246Z,28.00
2019-04-25T18:42:48.406Z,28.00
2019-04-25T18:45:23.146Z,28.10
2019-04-25T18:47:54.462Z,28.30
2019-04-25T18:50:26.515Z,28.40
2019-04-25T18:53:04.217Z,28.50
2019-04-25T18:55:41.198Z,28.50
2019-04-25T18:58:28.998Z,28.50
2019-04-25T19:01:11.450Z,28.60
2019-04-25T19:03:57.909Z,28.60
2019-04-25T19:06:27.810Z,28.70
2019-04-25T19:08:57.665Z,28.70
2019-04-25T19:11:27.766Z,28.80
2019-04-25T19:13:57.886Z,28.80
2019-04-25T19:16:27.764Z,28.80
2019-04-25T19:18:57.554Z,28.80
2019-04-25T19:21:33.177Z,28.80
2019-04-25T19:24:03.526Z,28.70
2019-04-25T19:26:33.318Z,28.80
2019-04-25T19:29:03.247Z,28.80
2019-04-25T19:31:33.114Z,28.80
2019-04-25T19:34:03.148Z,28.90
2019-04-25T19:36:34.482Z,28.80
2019-04-25T19:39:06.578Z,28.80
2019-04-25T19:41:42.960Z,28.80
2019-04-25T19:44:16.248Z,28.80
2019-04-25T19:46:49.300Z,28.90
2019-04-25T19:49:19.257Z,28.80
2019-04-25T19:51:49.420Z,28.90
2019-04-25T19:54:19.483Z,28.90
2019-04-25T19:56:49.630Z,28.90
2019-04-25T19:59:19.662Z,28.90
2019-04-25T20:01:50.799Z,28.90
2019-04-25T20:04:41.827Z,28.90
2019-04-25T20:07:31.517Z,29.00
2019-04-25T20:10:15.298Z,29.10
2019-04-25T20:12:50.547Z,29.00
2019-04-25T20:15:19.279Z,28.90
2019-04-25T20:17:49.842Z,29.00
2019-04-25T20:20:19.830Z,29.00
2019-04-25T20:22:50.242Z,28.90
2019-04-25T20:25:20.230Z,29.00
2019-04-25T20:27:50.770Z,29.00
2019-04-25T20:30:23.319Z,29.00
2019-04-25T20:32:53.798Z,29.00
2019-04-25T20:35:23.727Z,29.00
2019-04-25T20:37:53.514Z,29.00
2019-04-25T20:40:23.317Z,29.00
2019-04-25T20:42:53.923Z,29.00
2019-04-25T20:45:25.830Z,28.90
2019-04-25T20:47:55.711Z,28.90
2019-04-25T20:50:25.502Z,28.90
2019-04-25T20:52:55.346Z,29.00
2019-04-25T20:55:25.134Z,28.90
2019-04-25T20:57:55.491Z,28.90
2019-04-25T21:00:40.466Z,28.90
2019-04-25T21:03:10.818Z,28.90
2019-04-25T21:05:41.289Z,28.90
2019-04-25T21:08:11.453Z,28.90
2019-04-25T21:10:43.202Z,28.90
2019-04-25T21:13:17.060Z,29.00
2019-04-25T21:15:59.391Z,28.90
2019-04-25T21:18:53.001Z,29.00
2019-04-25T21:21:23.086Z,29.00
2019-04-25T21:23:53.057Z,29.00
2019-04-25T21:26:22.846Z,29.00
2019-04-25T21:28:53.154Z,29.00
2019-04-25T21:31:22.950Z,29.00
2019-04-25T21:33:53.929Z,29.00
2019-04-25T21:36:24.189Z,29.40
2019-04-25T21:38:54.259Z,29.10
2019-04-25T21:41:46.754Z,29.10
2019-04-25T21:44:17.733Z,29.10
2019-04-25T21:46:48.737Z,29.10
2019-04-25T21:49:18.726Z,29.10
2019-04-25T21:51:48.520Z,29.10
2019-04-25T21:54:18.314Z,29.10
2019-04-25T21:56:48.474Z,29.20
2019-04-25T21:59:18.663Z,29.20
2019-04-25T22:01:49.193Z,29.20
2019-04-25T22:04:19.815Z,29.20
2019-04-25T22:06:51.282Z,29.20
2019-04-25T22:09:22.615Z,29.20
2019-04-25T22:11:53.042Z,29.20
2019-04-25T22:14:23.313Z,29.20
2019-04-25T22:16:54.008Z,29.20
2019-04-25T22:19:26.674Z,29.20
2019-04-25T22:21:57.478Z,29.20
2019-04-25T22:24:28.486Z,29.20
2019-04-25T22:27:01.686Z,29.20
2019-04-25T22:29:33.128Z,29.20
2019-04-25T22:32:11.649Z,29.20
2019-04-25T22:34:52.541Z,29.20
2019-04-25T22:37:19.566Z,29.20
2019-04-25T22:39:49.952Z,29.30
2019-04-25T22:42:19.778Z,29.20
2019-04-25T22:44:49.643Z,29.20
2019-04-25T22:47:19.875Z,29.30
2019-04-25T22:49:51.248Z,29.30
2019-04-25T22:52:21.214Z,29.30
2019-04-25T22:54:51.006Z,29.30
2019-04-25T22:57:21.283Z,29.40
2019-04-25T22:59:51.131Z,29.40
2019-04-25T23:02:27.846Z,29.40
2019-04-25T23:05:12.102Z,29.40
2019-04-25T23:07:39.910Z,29.50
2019-04-25T23:10:10.615Z,29.50
2019-04-25T23:12:40.404Z,29.50
2019-04-25T23:15:11.060Z,29.60
2019-04-25T23:17:41.007Z,29.70
2019-04-25T23:20:11.756Z,29.60
2019-04-25T23:22:41.763Z,29.60
2019-04-25T23:25:14.275Z,29.70
2019-04-25T23:28:08.058Z,29.80
2019-04-25T23:31:01.442Z,29.80
2019-04-25T23:33:32.423Z,29.80
2019-04-25T23:36:02.955Z,29.80
2019-04-25T23:38:34.180Z,29.90
2019-04-25T23:41:05.793Z,30.00
2019-04-25T23:43:35.993Z,30.00
2019-04-25T23:46:06.029Z,30.00
2019-04-25T23:48:38.300Z,30.00
2019-04-25T23:51:08.786Z,30.00
2019-04-25T23:53:39.164Z,30.00
2019-04-25T23:56:09.228Z,30.10
2019-04-25T23:58:39.409Z,30.10
